Time;durP1;ratioP1;P1;durP2;ratioP2;P2;SDS_P1;SDS_P2;PMS_P1;PMS_P2;Temp;Humidity;BMP_temperature;BMP_pressure;BME280_temperature;BME280_humidity;BME280_pressure;Samples;Min_cycle;Max_cycle;Signal;HPM_P1;HPM_P2
2022/04/03 00:01:07;;;;;;;7.55;6.05;;;1.20;99.90;;;;;;5135663;28;20205;-72
2022/04/03 00:03:34;;;;;;;18.77;7.28;;;1.20;99.90;;;;;;5135778;28;20194;-71
2022/04/03 00:06:00;;;;;;;8.63;7.72;;;1.30;99.90;;;;;;5116922;28;20217;-72
2022/04/03 00:08:28;;;;;;;7.22;6.00;;;1.40;99.90;;;;;;5134940;28;20290;-72
2022/04/03 00:10:54;;;;;;;7.70;6.93;;;1.40;99.90;;;;;;5135008;28;20212;-72
2022/04/03 00:13:21;;;;;;;11.48;8.15;;;1.40;99.90;;;;;;5135764;28;20653;-70
2022/04/03 00:15:47;;;;;;;8.77;6.20;;;1.50;99.90;;;;;;5138215;27;20202;-69
2022/04/03 00:18:14;;;;;;;7.45;6.65;;;1.50;99.90;;;;;;5140025;27;20206;-70
2022/04/03 00:20:41;;;;;;;6.15;5.60;;;1.50;99.90;;;;;;5139815;27;20574;-70
2022/04/03 00:23:08;;;;;;;9.95;6.28;;;1.60;99.90;;;;;;5122193;27;20198;-72
2022/04/03 00:25:35;;;;;;;7.47;6.68;;;1.60;99.90;;;;;;5141022;27;20217;-72
2022/04/03 00:28:02;;;;;;;6.40;5.70;;;1.60;99.90;;;;;;5140272;27;20206;-72
2022/04/03 00:30:28;;;;;;;7.18;6.43;;;1.60;99.90;;;;;;5122063;27;20205;-72
2022/04/03 00:32:55;;;;;;;7.63;6.82;;;1.60;99.90;;;;;;5139492;27;20194;-72
2022/04/03 00:35:21;;;;;;;6.40;5.20;;;1.70;99.90;;;;;;5140546;27;20201;-71
2022/04/03 00:37:48;;;;;;;12.00;6.60;;;1.70;99.90;;;;;;5121941;27;20250;-71
2022/04/03 00:40:15;;;;;;;10.95;5.95;;;1.70;99.90;;;;;;5139629;27;20575;-71
2022/04/03 00:42:42;;;;;;;6.53;5.78;;;1.70;99.90;;;;;;5121692;27;20198;-72
2022/04/03 00:45:09;;;;;;;6.63;5.70;;;1.70;99.90;;;;;;5139174;27;20699;-72
2022/04/03 00:47:36;;;;;;;10.80;5.75;;;1.70;99.90;;;;;;5122350;27;20198;-72
2022/04/03 00:50:03;;;;;;;6.15;5.55;;;1.80;99.90;;;;;;5140134;27;20194;-72
2022/04/03 00:52:30;;;;;;;7.10;6.15;;;1.80;99.90;;;;;;5140473;27;20210;-72
2022/04/03 00:54:56;;;;;;;8.60;6.47;;;1.80;99.90;;;;;;5140090;27;20202;-72
2022/04/03 00:57:24;;;;;;;7.35;6.47;;;1.80;99.90;;;;;;5123275;27;20186;-72
2022/04/03 00:59:52;;;;;;;7.03;6.00;;;1.80;99.90;;;;;;5139911;27;20202;-72
2022/04/03 01:02:18;;;;;;;6.07;5.40;;;1.80;99.90;;;;;;5121041;27;20397;-72
2022/04/03 01:04:45;;;;;;;6.20;5.70;;;1.80;99.90;;;;;;5103540;27;20218;-72
2022/04/03 01:07:12;;;;;;;6.80;5.57;;;1.80;99.90;;;;;;5138480;27;20218;-72
2022/04/03 01:09:39;;;;;;;5.50;5.00;;;1.80;99.90;;;;;;5139476;27;20182;-72
2022/04/03 01:12:06;;;;;;;6.03;5.53;;;1.80;99.90;;;;;;5139649;27;20190;-72
2022/04/03 01:14:41;;;;;;;6.55;5.72;;;1.80;99.90;;;;;;5121115;27;20213;-72
2022/04/03 01:17:10;;;;;;;8.38;6.10;;;1.80;99.90;;;;;;5140601;27;20208;-72
2022/04/03 01:19:38;;;;;;;6.82;6.13;;;1.80;99.90;;;;;;5139170;27;20208;-72
2022/04/03 01:22:05;;;;;;;6.65;6.00;;;1.80;99.90;;;;;;5138915;27;20287;-72
2022/04/03 01:24:33;;;;;;;7.65;5.55;;;1.80;99.90;;;;;;5138976;27;20270;-72
2022/04/03 01:26:59;;;;;;;6.80;5.65;;;1.80;99.90;;;;;;5137637;27;20197;-72
2022/04/03 01:29:26;;;;;;;5.95;5.25;;;1.80;99.90;;;;;;5139459;27;20201;-72
2022/04/03 01:31:53;;;;;;;5.75;5.25;;;1.80;99.90;;;;;;5139366;27;20293;-72
2022/04/03 01:34:21;;;;;;;7.10;6.40;;;1.80;99.90;;;;;;5139333;27;20565;-72
2022/04/03 01:36:48;;;;;;;12.27;4.93;;;1.80;99.90;;;;;;5139910;27;20209;-72
2022/04/03 01:39:14;;;;;;;6.50;5.47;;;1.80;99.90;;;;;;5140307;27;20217;-72
2022/04/03 01:41:42;;;;;;;9.32;6.20;;;1.80;99.90;;;;;;5139625;27;20206;-72
2022/04/03 01:44:12;;;;;;;6.95;5.82;;;1.80;99.90;;;;;;5139573;27;20194;-72
2022/04/03 01:46:40;;;;;;;6.20;5.70;;;1.80;99.90;;;;;;5138701;27;20227;-72
2022/04/03 01:49:08;;;;;;;8.23;6.30;;;1.80;99.90;;;;;;5139247;27;20204;-72
2022/04/03 01:51:34;;;;;;;7.35;5.65;;;1.80;99.90;;;;;;5139956;27;20658;-72
2022/04/03 01:54:02;;;;;;;9.25;5.70;;;1.80;99.90;;;;;;5139167;27;20330;-73
2022/04/03 01:56:29;;;;;;;9.43;5.88;;;1.80;99.90;;;;;;5138362;27;20201;-73
2022/04/03 01:58:55;;;;;;;6.20;5.70;;;1.80;99.90;;;;;;5119787;27;20201;-73
2022/04/03 02:01:21;;;;;;;8.70;5.53;;;1.80;99.90;;;;;;5103424;27;20198;-72
2022/04/03 02:03:48;;;;;;;6.35;5.75;;;1.80;99.90;;;;;;5120834;27;20653;-72
2022/04/03 02:06:15;;;;;;;6.10;5.03;;;1.80;99.90;;;;;;5118694;27;20233;-72
2022/04/03 02:08:43;;;;;;;7.20;5.80;;;1.80;99.90;;;;;;5136854;27;20595;-73
2022/04/03 02:11:09;;;;;;;6.85;5.53;;;1.80;99.90;;;;;;5137022;27;20198;-72
2022/04/03 02:13:36;;;;;;;6.70;5.60;;;1.80;99.90;;;;;;5137534;27;20201;-72
2022/04/03 02:16:03;;;;;;;5.90;5.40;;;1.80;99.90;;;;;;5138173;27;20209;-72
2022/04/03 02:18:29;;;;;;;6.30;5.70;;;1.80;99.90;;;;;;5138335;27;20202;-72
2022/04/03 02:20:56;;;;;;;6.40;5.57;;;1.80;99.90;;;;;;5137845;27;20198;-72
2022/04/03 02:23:22;;;;;;;5.50;5.00;;;1.70;99.90;;;;;;5138607;27;20198;-72
2022/04/03 02:25:50;;;;;;;6.13;5.53;;;1.70;99.90;;;;;;5138020;27;20225;-73
2022/04/03 02:28:17;;;;;;;6.43;5.30;;;1.80;99.90;;;;;;5138438;27;20206;-72
2022/04/03 02:30:44;;;;;;;10.30;6.32;;;1.70;99.90;;;;;;5137981;27;20194;-72
2022/04/03 02:33:10;;;;;;;6.75;5.40;;;1.80;99.90;;;;;;5138468;27;20198;-72
2022/04/03 02:35:36;;;;;;;5.57;5.07;;;1.70;99.90;;;;;;5139483;27;20205;-72
2022/04/03 02:38:03;;;;;;;6.78;5.88;;;1.70;99.90;;;;;;5139361;27;20210;-72
2022/04/03 02:40:30;;;;;;;6.30;5.70;;;1.70;99.90;;;;;;5139796;27;20200;-72
2022/04/03 02:42:56;;;;;;;8.68;6.10;;;1.70;99.90;;;;;;5138776;27;20216;-72
2022/04/03 02:45:23;;;;;;;8.88;6.32;;;1.70;99.90;;;;;;5138381;27;20218;-72
2022/04/03 02:47:55;;;;;;;7.72;5.95;;;1.70;99.90;;;;;;5137344;27;20559;-72
2022/04/03 02:50:24;;;;;;;8.00;5.95;;;1.70;99.90;;;;;;5137578;27;20170;-73
2022/04/03 02:52:51;;;;;;;6.85;6.18;;;1.80;99.90;;;;;;5138507;27;20545;-72
2022/04/03 02:55:19;;;;;;;7.47;6.20;;;1.80;99.90;;;;;;5139415;27;20213;-72
2022/04/03 02:57:46;;;;;;;9.43;5.68;;;1.70;99.90;;;;;;5119998;27;20677;-72
2022/04/03 03:00:17;;;;;;;6.32;5.45;;;1.70;99.90;;;;;;5138332;27;20208;-72
2022/04/03 03:02:47;;;;;;;9.95;5.53;;;1.70;99.90;;;;;;5119627;27;20247;-72
2022/04/03 03:05:14;;;;;;;6.30;5.35;;;1.70;99.90;;;;;;5119110;27;20209;-72
2022/04/03 03:07:45;;;;;;;6.15;5.55;;;1.80;99.90;;;;;;5137703;27;20229;-72
2022/04/03 03:10:17;;;;;;;6.68;5.70;;;1.80;99.90;;;;;;5119568;27;20202;-72
2022/04/03 03:12:44;;;;;;;6.30;5.70;;;1.80;99.90;;;;;;5137465;27;20194;-72
2022/04/03 03:15:11;;;;;;;6.20;5.55;;;1.70;99.90;;;;;;5119393;27;20213;-72
2022/04/03 03:17:38;;;;;;;5.78;5.28;;;1.80;99.90;;;;;;5136964;27;20190;-72
2022/04/03 03:20:05;;;;;;;6.20;5.63;;;1.80;99.90;;;;;;5137423;27;20210;-72
2022/04/03 03:22:33;;;;;;;13.93;5.18;;;1.80;99.90;;;;;;5137359;27;20198;-72
2022/04/03 03:25:01;;;;;;;6.47;4.50;;;1.80;99.90;;;;;;5138221;27;20716;-72
2022/04/03 03:27:27;;;;;;;7.07;5.93;;;1.80;99.90;;;;;;5136932;27;20193;-72
2022/04/03 03:29:54;;;;;;;8.30;6.47;;;1.80;99.90;;;;;;5136656;27;20192;-72
2022/04/03 03:32:20;;;;;;;6.20;5.57;;;1.80;99.90;;;;;;5137633;27;20189;-72
2022/04/03 03:34:47;;;;;;;5.35;4.85;;;1.80;99.90;;;;;;5117648;27;20197;-72
2022/04/03 03:37:13;;;;;;;8.90;6.03;;;1.80;99.90;;;;;;5136676;27;20202;-72
2022/04/03 03:39:39;;;;;;;7.32;6.50;;;1.80;99.90;;;;;;5118350;28;20691;-72
2022/04/03 03:42:06;;;;;;;5.47;4.95;;;1.70;99.90;;;;;;5137057;27;20235;-72
2022/04/03 03:44:33;;;;;;;7.75;5.75;;;1.70;99.90;;;;;;5137017;28;20721;-72
2022/04/03 03:46:59;;;;;;;6.70;6.13;;;1.70;99.90;;;;;;5137669;28;20284;-73
2022/04/03 03:49:26;;;;;;;5.88;5.22;;;1.70;99.90;;;;;;5120051;28;20205;-72
2022/04/03 03:51:52;;;;;;;10.18;5.22;;;1.70;99.90;;;;;;5123346;27;20203;-72
2022/04/03 03:54:19;;;;;;;13.88;6.30;;;1.80;99.90;;;;;;5142833;27;20197;-72
2022/04/03 03:56:45;;;;;;;6.13;5.63;;;1.80;99.90;;;;;;5142033;27;20214;-72
2022/04/03 03:59:12;;;;;;;6.70;5.72;;;1.80;99.90;;;;;;5141142;27;20559;-72
2022/04/03 04:01:39;;;;;;;6.28;5.70;;;1.80;99.90;;;;;;5141756;27;20206;-72
2022/04/03 04:04:05;;;;;;;7.80;5.43;;;1.70;99.90;;;;;;5105684;27;20208;-72
2022/04/03 04:06:32;;;;;;;8.77;6.10;;;1.80;99.90;;;;;;5123201;27;20214;-72
2022/04/03 04:08:58;;;;;;;11.18;7.30;;;1.70;99.90;;;;;;5140923;27;20221;-72
2022/04/03 04:11:25;;;;;;;7.50;6.03;;;1.70;99.90;;;;;;5123254;27;20202;-72
2022/04/03 04:13:51;;;;;;;9.13;5.82;;;1.70;99.90;;;;;;5140366;27;20194;-72
2022/04/03 04:16:18;;;;;;;8.07;6.05;;;1.70;99.90;;;;;;5140888;27;20209;-73
2022/04/03 04:18:44;;;;;;;7.25;6.32;;;1.80;99.90;;;;;;5121529;27;20683;-71
2022/04/03 04:21:12;;;;;;;6.43;5.82;;;1.70;99.90;;;;;;5139061;27;20202;-71
2022/04/03 04:23:39;;;;;;;11.07;5.93;;;1.70;99.90;;;;;;5139200;27;20201;-71
2022/04/03 04:26:06;;;;;;;7.07;6.32;;;1.70;99.90;;;;;;5138288;27;20218;-71
2022/04/03 04:28:32;;;;;;;6.82;5.85;;;1.70;99.90;;;;;;5138769;27;20198;-71
2022/04/03 04:30:59;;;;;;;6.18;5.57;;;1.70;99.90;;;;;;5139580;27;20254;-71
2022/04/03 04:33:26;;;;;;;11.35;6.00;;;1.70;99.90;;;;;;5139413;27;20202;-71
2022/04/03 04:35:52;;;;;;;9.25;5.47;;;1.70;99.90;;;;;;5119677;27;20568;-71
2022/04/03 04:38:19;;;;;;;5.88;5.38;;;1.70;99.90;;;;;;5138603;27;20197;-71
2022/04/03 04:40:46;;;;;;;6.65;5.90;;;1.70;99.90;;;;;;5138862;27;20204;-71
2022/04/03 04:43:12;;;;;;;7.95;6.82;;;1.60;99.90;;;;;;5138380;27;20213;-71
2022/04/03 04:45:39;;;;;;;7.55;5.65;;;1.60;99.90;;;;;;5138168;27;20688;-71
2022/04/03 04:48:05;;;;;;;8.80;5.75;;;1.70;99.90;;;;;;5138326;27;20202;-72
2022/04/03 04:50:32;;;;;;;6.13;5.63;;;1.60;99.90;;;;;;5138312;27;20209;-71
2022/04/03 04:52:58;;;;;;;6.20;5.13;;;1.60;99.90;;;;;;5138044;27;20193;-71
2022/04/03 04:55:25;;;;;;;7.10;5.43;;;1.60;99.90;;;;;;5138212;27;20579;-72
2022/04/03 04:57:56;;;;;;;5.95;5.07;;;1.70;99.90;;;;;;5138008;27;20198;-73
2022/04/03 05:00:25;;;;;;;8.05;5.72;;;1.60;99.90;;;;;;5138035;27;20567;-74
2022/04/03 05:02:51;;;;;;;8.63;5.75;;;1.70;99.90;;;;;;5120073;27;20198;-74
2022/04/03 05:05:19;;;;;;;10.75;5.55;;;1.60;99.90;;;;;;5137877;27;20689;-73
2022/04/03 05:07:47;;;;;;;6.25;5.65;;;1.60;99.90;;;;;;5138513;27;20237;-73
2022/04/03 05:10:15;;;;;;;6.65;5.50;;;1.60;99.90;;;;;;5138415;27;20193;-73
2022/04/03 05:12:43;;;;;;;6.68;6.05;;;1.60;99.90;;;;;;5137934;27;20579;-74
2022/04/03 05:15:11;;;;;;;5.45;4.95;;;1.60;99.90;;;;;;5138778;27;20209;-74
2022/04/03 05:17:42;;;;;;;6.07;5.47;;;1.60;99.90;;;;;;5138051;27;20653;-74
2022/04/03 05:20:11;;;;;;;6.10;5.50;;;1.60;99.90;;;;;;5119083;27;20665;-74
2022/04/03 05:22:39;;;;;;;9.43;6.80;;;1.60;99.90;;;;;;5137161;27;20206;-74
2022/04/03 05:25:10;;;;;;;7.70;5.60;;;1.60;99.90;;;;;;5137917;27;20224;-74
2022/04/03 05:27:38;;;;;;;11.13;6.50;;;1.70;99.90;;;;;;5137201;27;20197;-74
2022/04/03 05:30:05;;;;;;;17.00;9.57;;;1.70;99.90;;;;;;5138266;27;20198;-74
2022/04/03 05:32:32;;;;;;;11.70;7.70;;;1.70;99.90;;;;;;5136855;27;20614;-74
2022/04/03 05:34:59;;;;;;;7.43;5.80;;;1.70;99.90;;;;;;5137273;27;20255;-74
2022/04/03 05:37:26;;;;;;;16.42;8.80;;;1.70;99.90;;;;;;5137911;27;20190;-74
2022/04/03 05:39:53;;;;;;;11.13;6.88;;;1.70;99.90;;;;;;5137873;27;20208;-74
2022/04/03 05:42:20;;;;;;;6.80;6.10;;;1.70;99.90;;;;;;5137607;27;20204;-74
2022/04/03 05:44:47;;;;;;;18.13;11.25;;;1.70;99.90;;;;;;5138317;27;20208;-72
2022/04/03 05:47:16;;;;;;;6.50;5.85;;;1.80;99.90;;;;;;5119011;27;20672;-72
2022/04/03 05:49:43;;;;;;;6.22;5.72;;;1.70;99.90;;;;;;5119092;27;20293;-72
2022/04/03 05:52:10;;;;;;;6.28;5.68;;;1.70;99.90;;;;;;5136811;27;20207;-72
2022/04/03 05:54:39;;;;;;;6.78;6.07;;;1.70;99.90;;;;;;5137627;27;20197;-72
2022/04/03 05:57:05;;;;;;;5.13;4.50;;;1.80;99.90;;;;;;5136984;27;20205;-72
2022/04/03 05:59:32;;;;;;;7.85;6.68;;;1.80;99.90;;;;;;5118578;27;20602;-72
2022/04/03 06:01:59;;;;;;;5.78;5.30;;;1.80;99.90;;;;;;5136904;27;20202;-72
2022/04/03 06:04:25;;;;;;;6.85;5.90;;;1.80;99.90;;;;;;5118341;27;20714;-72
2022/04/03 06:06:52;;;;;;;9.15;7.28;;;1.80;99.90;;;;;;5137175;27;20230;-73
2022/04/03 06:09:19;;;;;;;9.77;6.97;;;1.80;99.90;;;;;;5117762;27;20317;-73
2022/04/03 06:11:45;;;;;;;7.60;6.72;;;1.80;99.90;;;;;;5137408;27;20202;-73
2022/04/03 06:14:12;;;;;;;6.57;5.88;;;1.80;99.90;;;;;;5135970;27;20193;-73
2022/04/03 06:16:38;;;;;;;8.65;6.90;;;1.90;99.90;;;;;;5116942;27;20198;-73
2022/04/03 06:19:05;;;;;;;14.07;8.35;;;1.90;99.90;;;;;;5136514;27;20201;-73
2022/04/03 06:21:32;;;;;;;7.55;6.60;;;1.90;99.90;;;;;;5136088;27;20198;-73
2022/04/03 06:23:58;;;;;;;9.40;7.40;;;1.80;99.90;;;;;;5136792;27;20221;-73
2022/04/03 06:26:24;;;;;;;19.60;10.80;;;1.80;99.90;;;;;;5136829;27;20221;-72
2022/04/03 06:28:51;;;;;;;9.93;5.60;;;1.90;99.90;;;;;;5101204;27;20197;-72
2022/04/03 06:31:17;;;;;;;6.75;6.05;;;1.90;99.90;;;;;;5118063;27;20235;-72
2022/04/03 06:33:44;;;;;;;9.13;4.97;;;1.90;99.90;;;;;;5118046;27;20198;-73
2022/04/03 06:36:10;;;;;;;7.47;5.80;;;1.90;99.90;;;;;;5136239;27;20208;-72
2022/04/03 06:38:38;;;;;;;9.68;6.63;;;2.00;99.90;;;;;;5117847;27;20205;-72
2022/04/03 06:41:04;;;;;;;9.35;7.30;;;1.90;99.90;;;;;;5118059;27;20235;-72
2022/04/03 06:43:32;;;;;;;10.10;7.75;;;1.90;99.90;;;;;;5137064;27;20202;-73
2022/04/03 06:45:58;;;;;;;10.32;8.32;;;2.00;99.90;;;;;;5116952;27;20247;-73
2022/04/03 06:48:27;;;;;;;7.63;6.20;;;2.10;99.90;;;;;;5135674;27;20582;-73
2022/04/03 06:50:53;;;;;;;9.23;5.88;;;2.10;99.90;;;;;;5136243;27;20198;-73
2022/04/03 06:53:20;;;;;;;6.45;5.10;;;2.20;99.90;;;;;;5117350;27;20257;-73
2022/04/03 06:55:46;;;;;;;6.00;5.40;;;2.20;99.90;;;;;;5134845;27;20205;-74
2022/04/03 06:58:13;;;;;;;8.13;5.32;;;2.20;99.90;;;;;;5117052;27;20208;-73
2022/04/03 07:00:41;;;;;;;6.50;5.45;;;2.30;99.90;;;;;;5135776;27;20212;-73
2022/04/03 07:03:07;;;;;;;8.13;5.95;;;2.40;99.90;;;;;;5136669;27;20194;-73
2022/04/03 07:05:34;;;;;;;10.85;6.43;;;2.30;99.90;;;;;;5137208;27;20226;-73
2022/04/03 07:08:01;;;;;;;6.40;5.80;;;2.40;99.90;;;;;;5117286;27;20245;-72
2022/04/03 07:10:28;;;;;;;11.80;8.23;;;2.40;99.90;;;;;;5117947;27;20566;-73
2022/04/03 07:12:55;;;;;;;13.85;8.52;;;2.40;99.90;;;;;;5136805;27;20198;-73
2022/04/03 07:15:22;;;;;;;10.30;8.25;;;2.50;99.90;;;;;;5135558;27;20280;-72
2022/04/03 07:17:48;;;;;;;8.15;6.53;;;2.40;99.90;;;;;;5135755;27;20234;-71
2022/04/03 07:20:15;;;;;;;8.95;7.05;;;2.60;99.90;;;;;;5117133;27;20208;-71
2022/04/03 07:22:44;;;;;;;7.85;6.50;;;2.60;99.90;;;;;;5135884;27;20201;-72
2022/04/03 07:25:12;;;;;;;9.68;6.60;;;2.70;99.90;;;;;;5135143;27;20238;-72
2022/04/03 07:27:40;;;;;;;7.32;6.30;;;2.80;99.90;;;;;;5136098;27;20202;-72
2022/04/03 07:30:09;;;;;;;10.65;7.30;;;2.80;99.90;;;;;;5136517;27;20219;-72
2022/04/03 07:32:36;;;;;;;6.65;6.05;;;2.80;99.90;;;;;;5118498;28;20198;-72
2022/04/03 07:35:04;;;;;;;8.25;7.28;;;2.90;99.90;;;;;;5136966;27;20202;-71
2022/04/03 07:37:31;;;;;;;7.60;6.80;;;3.00;99.90;;;;;;5136205;27;20238;-71
2022/04/03 07:39:57;;;;;;;12.10;9.17;;;3.20;99.90;;;;;;5136622;27;20790;-71
2022/04/03 07:42:24;;;;;;;7.53;6.18;;;3.20;99.90;;;;;;5138643;27;20619;-73
2022/04/03 07:44:50;;;;;;;10.50;6.30;;;3.20;99.90;;;;;;5138247;27;20194;-73
2022/04/03 07:47:17;;;;;;;6.95;6.22;;;3.30;99.90;;;;;;5138237;28;20681;-73
2022/04/03 07:49:44;;;;;;;8.02;7.22;;;3.50;99.90;;;;;;5119065;28;20285;-73
2022/04/03 07:52:10;;;;;;;8.63;6.20;;;3.70;99.90;;;;;;5138258;28;20292;-73
2022/04/03 07:54:38;;;;;;;9.20;6.90;;;3.70;99.90;;;;;;5119210;28;20262;-73
2022/04/03 07:57:06;;;;;;;8.00;7.13;;;3.80;99.90;;;;;;5137292;28;20197;-73
2022/04/03 07:59:34;;;;;;;6.82;6.13;;;3.90;99.90;;;;;;5119896;28;20209;-73
2022/04/03 08:02:01;;;;;;;9.40;6.55;;;4.10;99.90;;;;;;5136647;28;20194;-73
2022/04/03 08:04:27;;;;;;;6.40;5.80;;;4.10;99.90;;;;;;5136931;28;20209;-73
2022/04/03 08:06:54;;;;;;;6.72;5.97;;;4.10;99.90;;;;;;5138348;27;20225;-73
2022/04/03 08:09:21;;;;;;;11.63;5.55;;;4.30;99.90;;;;;;5119241;28;20230;-73
2022/04/03 08:11:47;;;;;;;6.95;6.25;;;4.30;99.90;;;;;;5120467;28;20216;-73
2022/04/03 08:14:14;;;;;;;5.65;5.18;;;4.30;99.90;;;;;;5119727;28;20270;-73
2022/04/03 08:16:40;;;;;;;7.80;5.88;;;4.10;99.90;;;;;;5137722;28;20334;-73
2022/04/03 08:19:07;;;;;;;9.18;6.55;;;4.20;99.90;;;;;;5136360;28;20206;-72
2022/04/03 08:21:33;;;;;;;6.93;6.32;;;4.30;99.90;;;;;;5136866;28;20786;-73
2022/04/03 08:24:00;;;;;;;7.55;6.80;;;4.40;99.90;;;;;;5118431;28;20266;-73
2022/04/03 08:26:26;;;;;;;7.20;6.18;;;4.60;99.90;;;;;;5137385;28;20217;-73
2022/04/03 08:28:53;;;;;;;6.38;5.75;;;4.50;99.90;;;;;;5136985;28;20208;-73
2022/04/03 08:31:23;;;;;;;10.23;6.15;;;4.40;99.90;;;;;;5119002;28;20202;-73
2022/04/03 08:33:51;;;;;;;9.57;7.60;;;4.60;99.90;;;;;;5137013;28;20198;-74
2022/04/03 08:36:18;;;;;;;11.77;6.80;;;4.60;99.90;;;;;;5120314;27;20256;-74
2022/04/03 08:38:44;;;;;;;11.88;8.43;;;4.80;99.90;;;;;;5139987;27;20242;-73
2022/04/03 08:41:11;;;;;;;5.68;5.18;;;4.70;99.90;;;;;;5140331;27;20202;-74
2022/04/03 08:43:40;;;;;;;9.40;5.85;;;4.70;99.90;;;;;;5139237;27;20206;-73
2022/04/03 08:46:08;;;;;;;8.88;7.40;;;4.70;99.90;;;;;;5104405;27;20229;-73
2022/04/03 08:48:36;;;;;;;9.38;6.63;;;4.80;99.90;;;;;;5140661;27;20201;-73
2022/04/03 08:51:05;;;;;;;11.80;8.23;;;4.80;99.90;;;;;;5140707;27;20681;-73
2022/04/03 08:53:33;;;;;;;10.75;8.13;;;4.90;99.90;;;;;;5122397;27;20258;-72
2022/04/03 08:55:59;;;;;;;7.68;6.00;;;5.00;99.90;;;;;;5139503;27;20208;-72
2022/04/03 08:58:26;;;;;;;7.15;5.90;;;5.00;99.90;;;;;;5140278;27;20202;-74
2022/04/03 09:00:54;;;;;;;7.32;5.80;;;5.10;99.90;;;;;;5138307;27;20194;-72
2022/04/03 09:03:22;;;;;;;7.20;5.80;;;5.20;99.90;;;;;;5119536;27;20658;-74
2022/04/03 09:05:48;;;;;;;9.13;6.22;;;5.00;99.90;;;;;;5137512;27;20689;-74
2022/04/03 09:08:15;;;;;;;7.15;5.35;;;4.80;99.90;;;;;;5138118;27;20229;-74
2022/04/03 09:10:51;;;;;;;6.00;5.40;;;4.40;99.90;;;;;;5119583;27;20601;-73
2022/04/03 09:13:24;;;;;;;13.80;7.47;;;4.20;99.90;;;;;;5138139;27;20186;-74
2022/04/03 09:15:50;;;;;;;10.55;6.32;;;4.20;99.90;;;;;;5139889;27;20189;-74
2022/04/03 09:18:18;;;;;;;11.65;7.50;;;4.20;99.90;;;;;;5121771;27;20194;-74
2022/04/03 09:20:44;;;;;;;13.57;7.88;;;4.20;99.90;;;;;;5140092;27;20197;-74
2022/04/03 09:23:20;;;;;;;11.95;9.05;;;4.20;99.90;;;;;;5123312;27;20190;-74
2022/04/03 09:25:47;;;;;;;5.50;5.00;;;4.30;99.90;;;;;;5142644;27;20178;-73
2022/04/03 09:28:14;;;;;;;5.75;5.25;;;4.60;99.90;;;;;;5144351;27;20197;-74
2022/04/03 09:30:45;;;;;;;5.40;4.90;;;4.50;99.90;;;;;;5123656;27;20198;-74
2022/04/03 09:33:20;;;;;;;5.53;5.03;;;4.60;99.90;;;;;;5123400;27;20201;-74
2022/04/03 09:36:01;;;;;;;6.30;4.85;;;4.90;99.90;;;;;;5089786;27;20189;-74
2022/04/03 09:38:32;;;;;;;5.85;4.90;;;5.50;99.90;;;;;;5139182;27;20209;-74
2022/04/03 09:41:00;;;;;;;5.88;4.57;;;5.60;99.90;;;;;;5121383;27;20250;-74
2022/04/03 09:43:40;;;;;;;7.07;4.90;;;5.40;99.90;;;;;;5138288;27;20209;-74
2022/04/03 09:46:13;;;;;;;5.10;4.60;;;5.40;99.90;;;;;;5138386;27;20664;-72
2022/04/03 09:48:43;;;;;;;5.65;4.82;;;5.30;99.90;;;;;;5136991;27;20209;-73
2022/04/03 09:51:22;;;;;;;5.28;4.78;;;5.10;99.90;;;;;;5137712;27;20205;-73
2022/04/03 09:53:52;;;;;;;4.80;4.40;;;5.30;99.90;;;;;;5140709;27;20173;-74
2022/04/03 09:56:31;;;;;;;5.18;4.78;;;5.90;99.90;;;;;;5141343;27;20209;-73
2022/04/03 09:59:05;;;;;;;4.57;3.95;;;6.60;99.90;;;;;;5122650;27;20198;-74
2022/04/03 10:01:38;;;;;;;6.40;4.28;;;6.50;99.90;;;;;;5141187;27;20181;-74
2022/04/03 10:04:07;;;;;;;6.82;4.03;;;6.30;99.90;;;;;;5141778;27;20209;-74
2022/04/03 10:06:35;;;;;;;5.20;4.80;;;6.20;99.90;;;;;;5141107;27;20669;-74
2022/04/03 10:09:02;;;;;;;6.28;4.70;;;6.40;99.90;;;;;;5117800;28;20230;-74
2022/04/03 10:11:29;;;;;;;11.27;4.40;;;6.50;99.90;;;;;;5118121;28;20199;-74
2022/04/03 10:13:56;;;;;;;4.68;4.28;;;6.50;99.90;;;;;;5117258;28;20201;-73
2022/04/03 10:16:23;;;;;;;7.22;5.13;;;6.50;99.90;;;;;;5116432;28;20218;-73
2022/04/03 10:18:50;;;;;;;7.18;4.35;;;6.70;99.90;;;;;;5115638;28;20260;-74
2022/04/03 10:21:34;;;;;;;4.63;4.25;;;6.80;99.90;;;;;;5115779;28;20198;-74
2022/04/03 10:24:09;;;;;;;4.72;4.43;;;6.50;99.90;;;;;;5116731;28;20187;-74
2022/04/03 10:26:38;;;;;;;4.80;4.40;;;6.90;99.90;;;;;;5116751;28;20705;-74
2022/04/03 10:29:10;;;;;;;4.90;4.30;;;6.70;99.90;;;;;;5117739;28;20202;-74
2022/04/03 10:31:38;;;;;;;9.57;5.95;;;6.90;99.90;;;;;;5117352;28;20566;-74
2022/04/03 10:34:05;;;;;;;12.95;7.20;;;7.00;99.90;;;;;;5117714;28;20222;-74
2022/04/03 10:36:33;;;;;;;5.30;4.80;;;6.70;99.90;;;;;;5116792;28;20681;-74
2022/04/03 10:39:10;;;;;;;5.32;4.82;;;6.50;99.90;;;;;;5116625;28;20285;-74
2022/04/03 10:41:41;;;;;;;9.05;5.20;;;6.10;99.90;;;;;;5118373;28;20265;-74
2022/04/03 10:44:22;;;;;;;9.43;6.00;;;6.10;99.90;;;;;;5118101;28;20205;-73
2022/04/03 10:47:04;;;;;;;6.13;5.50;;;5.80;99.90;;;;;;5117557;28;20689;-73
2022/04/03 10:49:47;;;;;;;5.25;4.80;;;5.90;99.90;;;;;;5119450;28;20194;-73
2022/04/03 10:52:22;;;;;;;5.90;5.40;;;6.10;99.90;;;;;;5118864;28;20178;-73
2022/04/03 10:54:51;;;;;;;5.53;5.00;;;6.10;99.90;;;;;;5119168;28;20299;-73
2022/04/03 10:57:43;;;;;;;6.30;5.63;;;6.60;99.90;;;;;;5117724;28;20205;-72
2022/04/03 11:00:12;;;;;;;5.97;4.45;;;6.70;99.90;;;;;;5117307;28;20209;-70
2022/04/03 11:02:45;;;;;;;8.48;6.20;;;7.40;99.90;;;;;;5117806;28;20202;-70
2022/04/03 11:05:26;;;;;;;9.70;6.25;;;7.60;99.90;;;;;;5116916;28;20776;-70
2022/04/03 11:07:58;;;;;;;4.88;4.32;;;7.60;99.90;;;;;;5122292;27;20226;-72
2022/04/03 11:10:54;;;;;;;5.30;4.90;;;7.50;99.90;;;;;;5136977;27;20201;-71
2022/04/03 11:13:39;;;;;;;11.43;8.95;;;7.90;99.90;;;;;;5120286;27;20188;-72
2022/04/03 11:16:10;;;;;;;4.50;4.10;;;8.70;99.90;;;;;;5136668;27;20284;-71
2022/04/03 11:18:50;;;;;;;11.48;8.02;;;8.20;99.90;;;;;;5118479;28;20235;-71
2022/04/03 11:21:23;;;;;;;9.57;6.82;;;8.30;99.90;;;;;;5117432;27;20198;-73
2022/04/03 11:24:11;;;;;;;6.85;5.20;;;8.30;99.90;;;;;;5117591;27;20232;-73
2022/04/03 11:26:39;;;;;;;4.32;3.97;;;8.20;99.90;;;;;;5135556;27;20217;-72
2022/04/03 11:29:09;;;;;;;6.38;4.22;;;7.50;99.90;;;;;;5136243;27;20201;-72
2022/04/03 11:31:36;;;;;;;5.30;4.93;;;7.50;99.90;;;;;;5135548;27;20566;-72
2022/04/03 11:34:03;;;;;;;5.82;4.05;;;8.50;99.90;;;;;;5118573;27;20821;-73
2022/04/03 11:36:31;;;;;;;4.30;4.00;;;8.60;99.90;;;;;;5135583;27;20761;-71
2022/04/03 11:39:00;;;;;;;4.72;4.28;;;8.40;99.90;;;;;;5137496;27;20198;-72
2022/04/03 11:41:28;;;;;;;4.60;4.30;;;8.60;99.90;;;;;;5118819;27;20342;-72
2022/04/03 11:44:07;;;;;;;4.13;3.92;;;9.50;99.90;;;;;;5136203;27;20202;-74
2022/04/03 11:46:39;;;;;;;4.60;4.20;;;9.60;99.90;;;;;;5117748;28;20622;-71
2022/04/03 11:49:14;;;;;;;5.82;4.25;;;9.70;99.90;;;;;;5136047;28;20202;-70
2022/04/03 11:51:42;;;;;;;4.93;4.53;;;10.40;99.90;;;;;;5136132;28;20196;-70
2022/04/03 11:54:09;;;;;;;4.57;4.00;;;9.40;99.90;;;;;;5117907;28;20571;-70
2022/04/03 11:56:37;;;;;;;4.45;4.15;;;8.90;99.90;;;;;;5118497;28;20219;-71
2022/04/03 11:59:05;;;;;;;4.22;4.03;;;8.10;99.90;;;;;;5135199;28;20198;-70
2022/04/03 12:01:34;;;;;;;3.60;3.30;;;7.80;99.90;;;;;;5136236;28;20186;-70
2022/04/03 12:04:14;;;;;;;4.35;4.05;;;8.30;99.90;;;;;;5136355;28;20189;-71
2022/04/03 12:06:42;;;;;;;4.60;4.30;;;9.30;99.90;;;;;;5136631;27;20225;-70
2022/04/03 12:09:13;;;;;;;4.47;4.18;;;10.70;99.90;;;;;;5136311;28;20217;-70
2022/04/03 12:11:50;;;;;;;3.83;3.47;;;10.30;99.90;;;;;;5138400;27;20182;-71
2022/04/03 12:14:30;;;;;;;4.15;3.95;;;10.80;99.90;;;;;;5140133;27;20190;-73
2022/04/03 12:17:02;;;;;;;4.90;4.50;;;10.20;99.90;;;;;;5139394;27;20205;-70
2022/04/03 12:19:33;;;;;;;4.80;4.40;;;11.00;99.90;;;;;;5139078;27;20594;-70
2022/04/03 12:22:04;;;;;;;4.27;4.07;;;10.70;99.90;;;;;;5121476;27;21112;-70
2022/04/03 12:24:32;;;;;;;5.33;4.97;;;11.20;99.90;;;;;;5137914;27;20611;-70
2022/04/03 12:27:20;;;;;;;4.70;4.40;;;10.50;99.90;;;;;;5138193;27;21239;-71
2022/04/03 12:29:49;;;;;;;4.70;4.20;;;10.20;99.90;;;;;;5138357;27;20619;-71
2022/04/03 12:32:18;;;;;;;4.30;4.00;;;11.30;99.90;;;;;;5120225;27;20623;-71
2022/04/03 12:34:47;;;;;;;4.17;3.83;;;11.70;99.90;;;;;;5138699;27;20582;-71
2022/04/03 12:37:14;;;;;;;4.37;4.07;;;11.80;99.90;;;;;;5138496;27;20611;-71
2022/04/03 12:39:49;;;;;;;4.33;4.03;;;11.80;99.90;;;;;;5138935;27;20615;-73
2022/04/03 12:42:20;;;;;;;4.80;4.17;;;11.60;99.90;;;;;;5139494;27;20615;-71
2022/04/03 12:45:00;;;;;;;4.17;3.87;;;12.30;99.90;;;;;;5139742;27;20607;-70
2022/04/03 12:47:29;;;;;;;4.20;3.80;;;12.80;99.90;;;;;;5139885;27;20705;-70
2022/04/03 12:50:07;;;;;;;4.30;4.00;;;12.40;99.90;;;;;;5140332;27;20976;-70
2022/04/03 12:52:52;;;;;;;4.77;4.43;;;11.20;99.90;;;;;;5139432;27;20599;-71
2022/04/03 12:55:22;;;;;;;5.83;5.43;;;10.60;99.90;;;;;;5138895;27;20759;-72
2022/04/03 12:58:26;;;;;;;5.47;4.80;;;10.90;99.90;;;;;;5140160;27;20615;-72
2022/04/03 13:01:25;;;;;;;4.30;4.00;;;11.00;99.90;;;;;;5137887;27;20705;-72
2022/04/03 13:03:52;;;;;;;31.00;16.27;;;10.50;99.90;;;;;;5082838;27;21130;-72